Swinomish — WC5223 — position and weather

sailwx.info

Track history (hours):
 
Tides and Currents Weather Stations Pressure Air Temp Water Temp Dewpoint Dewpoint Depression Visibility Wind Speed Wind Dir Waves Ship Positions

Swinomish

Owner: DUNLAP TOWING CO, LA CONNER, WA. More information available from US FCC via Universal Licensing System and Coast Guard Vessel Documentation Center.

Last reported at 2016-Apr-30 22:26 UTC. Time now 2016-May-03 10:35 UTC.
Position N 48°24' W 122°30'.

Length 15 m; draft 3.5 m.

Type: Tug. MMSI: 366972050.

Date/timePositionNaut miles runAvg speedWind from/ knotsBaromVisibWave heightAir tempDewpointWater temp
2016-Apr-30 22:26N 48°24' W 122°30'5 5.9
2016-Apr-30 21:33N 48°19' W 122°30'1010.1
2016-Apr-30 20:33N 48°09' W 122°32'1110.6
2016-Apr-30 19:32N 48°02' W 122°19'5 4.9
2016-Apr-30 18:34N 47°59' W 122°13'2 2.0
2016-Apr-30 17:34N 47°58' W 122°16'2 2.0
2016-Apr-30 16:34N 47°57' W 122°19'2 1.6
2016-Apr-30 15:34N 47°56' W 122°20'2 1.7
2016-Apr-30 14:34N 47°54' W 122°20'1 1.5
2016-Apr-30 13:34N 47°53' W 122°21'1 1.4
2016-Apr-30 12:34N 47°52' W 122°22'2 1.6
2016-Apr-30 11:34N 47°50' W 122°23'2 1.9
2016-Apr-30 10:34N 47°49' W 122°25'2 2.2
2016-Apr-30 09:34N 47°46' W 122°25'2 2.1
2016-Apr-30 08:34N 47°44' W 122°26'2 2.2
2016-Apr-30 07:34N 47°43' W 122°28'2 2.2
2016-Apr-30 06:34N 47°41' W 122°29'2 1.9
2016-Apr-30 05:34N 47°39' W 122°29'1 1.4
2016-Apr-30 04:34N 47°37' W 122°29'1 1.4
2016-Apr-30 03:34N 47°36' W 122°28'2 1.5
2016-Apr-30 02:34N 47°34' W 122°28'2 1.7
2016-Apr-30 01:34N 47°33' W 122°28'2 1.7
2016-Apr-30 00:34N 47°31' W 122°29'2 2.2
2016-Apr-29 23:33N 47°29' W 122°30'3 2.6
2016-Apr-29 22:34N 47°27' W 122°31'3 2.8
2016-Apr-29 21:33N 47°24' W 122°32'3 2.8
2016-Apr-29 20:33N 47°21' W 122°32'3 3.0
2016-Apr-29 19:33N 47°18' W 122°33'4 3.6
2016-Apr-29 18:29N 47°14' W 122°35'10 1.6
2016-Apr-29 12:33N 47°10' W 122°47'5 0.4
2016-Apr-28 21:34N 47°11' W 122°39'2 1.1
2016-Apr-28 20:13N 47°13' W 122°38'1 0.9
2016-Apr-28 19:33N 47°13' W 122°39'2 0.4
2016-Apr-28 15:10N 47°13' W 122°37'1 2.3
2016-Apr-28 14:34N 47°14' W 122°35'3 2.7
2016-Apr-28 13:34N 47°16' W 122°33'2 2.2
2016-Apr-28 12:32N 47°18' W 122°33'1 1.3
2016-Apr-28 11:33N 47°19' W 122°32'2 0.6
2016-Apr-28 08:13N 47°18' W 122°29'0 0.5
2016-Apr-28 07:30N 47°18' W 122°29'1 0.8
2016-Apr-28 06:34N 47°18' W 122°28'1 0.8
2016-Apr-28 05:33N 47°17' W 122°27'0 0.5
2016-Apr-28 04:34N 47°17' W 122°28'0 0.4
2016-Apr-28 03:34N 47°17' W 122°28'1 0.5
2016-Apr-28 02:34N 47°18' W 122°29'0 0.5
2016-Apr-28 01:34N 47°18' W 122°29'0 0.4
2016-Apr-28 00:33N 47°18' W 122°30'0 0.4
2016-Apr-27 23:34N 47°19' W 122°30'2 1.8
2016-Apr-27 22:34N 47°20' W 122°28'2 1.6
2016-Apr-27 21:34N 47°21' W 122°26'1 1.4
2016-Apr-27 20:33N 47°22' W 122°25'1 1.3
2016-Apr-27 19:34N 47°23' W 122°23'1 1.2
2016-Apr-27 18:34N 47°24' W 122°23'2 1.5
2016-Apr-27 17:34N 47°25' W 122°24'2 1.7
2016-Apr-27 16:34N 47°27' W 122°25'1 1.4
2016-Apr-27 15:34N 47°28' W 122°26'2 1.6
2016-Apr-27 14:34N 47°29' W 122°26'2 1.7
2016-Apr-27 13:34N 47°31' W 122°27'2 1.7
2016-Apr-27 12:34N 47°33' W 122°28'2 1.8
2016-Apr-27 11:33N 47°34' W 122°28'2 2.0
2016-Apr-27 10:33N 47°36' W 122°29'2 1.8
2016-Apr-27 09:33N 47°38' W 122°29'2 1.8
2016-Apr-27 08:33N 47°40' W 122°29'2 1.7
2016-Apr-27 07:33N 47°42' W 122°29'2 1.6
2016-Apr-27 06:33N 47°43' W 122°28'2 2.3
2016-Apr-27 05:34N 47°46' W 122°27'2 2.4
2016-Apr-27 04:33N 47°48' W 122°26'2 2.3
2016-Apr-27 03:33N 47°50' W 122°24'2 2.2
2016-Apr-27 02:33N 47°51' W 122°22'13 1.0
2016-Apr-26 14:33N 48°04' W 122°25'12 2.3
2016-Apr-26 09:27N 48°14' W 122°33'2 2.1
2016-Apr-26 08:32N 48°16' W 122°32'3 2.7
2016-Apr-26 07:32N 48°18' W 122°30'2 2.0
2016-Apr-26 06:32N 48°20' W 122°32'2 1.5
2016-Apr-26 05:21N 48°21' W 122°33'1 1.5
2016-Apr-26 04:33N 48°22' W 122°32'0 0.1
2016-Apr-26 03:14N 48°22' W 122°32'0 0.0
2016-Apr-26 02:33N 48°22' W 122°32'2 1.6
2016-Apr-26 01:31N 48°23' W 122°30'1 0.0
2016-Apr-24 18:12N 48°24' W 122°30'0 0.0
2016-Apr-24 14:24N 48°24' W 122°30'0 0.0
2016-Apr-23 12:28N 48°24' W 122°30'0 0.0
2016-Apr-23 11:28N 48°24' W 122°30'0 0.0
2016-Apr-23 10:27N 48°24' W 122°30'0 0.0
2016-Apr-23 09:28N 48°24' W 122°30'0 0.0
2016-Apr-22 13:24N 48°24' W 122°30'0 0.0
2016-Apr-22 12:33N 48°24' W 122°30'0 0.0
2016-Apr-22 11:33N 48°24' W 122°30'0 0.0
2016-Apr-22 10:33N 48°24' W 122°30'19 7.9
2016-Apr-22 08:09N 48°05' W 122°26'711.0
2016-Apr-22 07:33N 47°60' W 122°20'1010.4
2016-Apr-22 06:34N 47°50' W 122°24'1111.2
2016-Apr-22 05:33N 47°39' W 122°29'1211.5
2016-Apr-22 04:33N 47°28' W 122°31'1212.2
2016-Apr-22 03:33N 47°16' W 122°33'11 1.1
2016-Apr-21 17:19N 47°10' W 122°48'6 0.8
2016-Apr-21 10:22N 47°11' W 122°40'2 2.4
2016-Apr-21 09:29N 47°12' W 122°37'3 3.4
2016-Apr-21 08:34N 47°15' W 122°34'3 3.2
2016-Apr-21 07:33N 47°18' W 122°33'1 1.3
2016-Apr-21 06:33N 47°19' W 122°32'2 1.7
2016-Apr-21 05:33N 47°18' W 122°30'2 1.5
2016-Apr-21 04:34N 47°17' W 122°28'1 0.8
2016-Apr-21 03:33N 47°17' W 122°27'1 0.7
2016-Apr-21 02:34N 47°17' W 122°28'1 0.7
2016-Apr-21 01:33N 47°18' W 122°28'1 0.7
2016-Apr-21 00:34N 47°18' W 122°29'1 1.2
2016-Apr-20 23:34N 47°17' W 122°28'0 0.4
2016-Apr-20 22:33N 47°17' W 122°29'  
Track history (hours):
 
Tides and Currents Weather Stations Pressure Air Temp Water Temp Dewpoint Dewpoint Depression Visibility Wind Speed Wind Dir Waves Ship Positions

Swinomish

Owner: DUNLAP TOWING CO, LA CONNER, WA. More information available from US FCC via Universal Licensing System and Coast Guard Vessel Documentation Center.

Last reported at 2016-Apr-30 22:26 UTC. Time now 2016-May-03 10:35 UTC.
Position N 48°24' W 122°30'.

Length 15 m; draft 3.5 m.

Type: Tug. MMSI: 366972050.

Date/timePositionNaut miles runAvg speedWind from/ knotsBaromVisibWave heightAir tempDewpointWater temp
2016-Apr-30 22:26N 48°24' W 122°30'5 5.9
2016-Apr-30 21:33N 48°19' W 122°30'1010.1
2016-Apr-30 20:33N 48°09' W 122°32'1110.6
2016-Apr-30 19:32N 48°02' W 122°19'5 4.9
2016-Apr-30 18:34N 47°59' W 122°13'2 2.0
2016-Apr-30 17:34N 47°58' W 122°16'2 2.0
2016-Apr-30 16:34N 47°57' W 122°19'2 1.6
2016-Apr-30 15:34N 47°56' W 122°20'2 1.7
2016-Apr-30 14:34N 47°54' W 122°20'1 1.5
2016-Apr-30 13:34N 47°53' W 122°21'1 1.4
2016-Apr-30 12:34N 47°52' W 122°22'2 1.6
2016-Apr-30 11:34N 47°50' W 122°23'2 1.9
2016-Apr-30 10:34N 47°49' W 122°25'2 2.2
2016-Apr-30 09:34N 47°46' W 122°25'2 2.1
2016-Apr-30 08:34N 47°44' W 122°26'2 2.2
2016-Apr-30 07:34N 47°43' W 122°28'2 2.2
2016-Apr-30 06:34N 47°41' W 122°29'2 1.9
2016-Apr-30 05:34N 47°39' W 122°29'1 1.4
2016-Apr-30 04:34N 47°37' W 122°29'1 1.4
2016-Apr-30 03:34N 47°36' W 122°28'2 1.5
2016-Apr-30 02:34N 47°34' W 122°28'2 1.7
2016-Apr-30 01:34N 47°33' W 122°28'2 1.7
2016-Apr-30 00:34N 47°31' W 122°29'2 2.2
2016-Apr-29 23:33N 47°29' W 122°30'3 2.6
2016-Apr-29 22:34N 47°27' W 122°31'3 2.8
2016-Apr-29 21:33N 47°24' W 122°32'3 2.8
2016-Apr-29 20:33N 47°21' W 122°32'3 3.0
2016-Apr-29 19:33N 47°18' W 122°33'4 3.6
2016-Apr-29 18:29N 47°14' W 122°35'10 1.6
2016-Apr-29 12:33N 47°10' W 122°47'5 0.4
2016-Apr-28 21:34N 47°11' W 122°39'2 1.1
2016-Apr-28 20:13N 47°13' W 122°38'1 0.9
2016-Apr-28 19:33N 47°13' W 122°39'2 0.4
2016-Apr-28 15:10N 47°13' W 122°37'1 2.3
2016-Apr-28 14:34N 47°14' W 122°35'3 2.7
2016-Apr-28 13:34N 47°16' W 122°33'2 2.2
2016-Apr-28 12:32N 47°18' W 122°33'1 1.3
2016-Apr-28 11:33N 47°19' W 122°32'2 0.6
2016-Apr-28 08:13N 47°18' W 122°29'0 0.5
2016-Apr-28 07:30N 47°18' W 122°29'1 0.8
2016-Apr-28 06:34N 47°18' W 122°28'1 0.8
2016-Apr-28 05:33N 47°17' W 122°27'0 0.5
2016-Apr-28 04:34N 47°17' W 122°28'0 0.4
2016-Apr-28 03:34N 47°17' W 122°28'1 0.5
2016-Apr-28 02:34N 47°18' W 122°29'0 0.5
2016-Apr-28 01:34N 47°18' W 122°29'0 0.4
2016-Apr-28 00:33N 47°18' W 122°30'0 0.4
2016-Apr-27 23:34N 47°19' W 122°30'2 1.8
2016-Apr-27 22:34N 47°20' W 122°28'2 1.6
2016-Apr-27 21:34N 47°21' W 122°26'1 1.4
2016-Apr-27 20:33N 47°22' W 122°25'1 1.3
2016-Apr-27 19:34N 47°23' W 122°23'1 1.2
2016-Apr-27 18:34N 47°24' W 122°23'2 1.5
2016-Apr-27 17:34N 47°25' W 122°24'2 1.7
2016-Apr-27 16:34N 47°27' W 122°25'1 1.4
2016-Apr-27 15:34N 47°28' W 122°26'2 1.6
2016-Apr-27 14:34N 47°29' W 122°26'2 1.7
2016-Apr-27 13:34N 47°31' W 122°27'2 1.7
2016-Apr-27 12:34N 47°33' W 122°28'2 1.8
2016-Apr-27 11:33N 47°34' W 122°28'2 2.0
2016-Apr-27 10:33N 47°36' W 122°29'2 1.8
2016-Apr-27 09:33N 47°38' W 122°29'2 1.8
2016-Apr-27 08:33N 47°40' W 122°29'2 1.7
2016-Apr-27 07:33N 47°42' W 122°29'2 1.6
2016-Apr-27 06:33N 47°43' W 122°28'2 2.3
2016-Apr-27 05:34N 47°46' W 122°27'2 2.4
2016-Apr-27 04:33N 47°48' W 122°26'2 2.3
2016-Apr-27 03:33N 47°50' W 122°24'2 2.2
2016-Apr-27 02:33N 47°51' W 122°22'13 1.0
2016-Apr-26 14:33N 48°04' W 122°25'12 2.3
2016-Apr-26 09:27N 48°14' W 122°33'2 2.1
2016-Apr-26 08:32N 48°16' W 122°32'3 2.7
2016-Apr-26 07:32N 48°18' W 122°30'2 2.0
2016-Apr-26 06:32N 48°20' W 122°32'2 1.5
2016-Apr-26 05:21N 48°21' W 122°33'1 1.5
2016-Apr-26 04:33N 48°22' W 122°32'0 0.1
2016-Apr-26 03:14N 48°22' W 122°32'0 0.0
2016-Apr-26 02:33N 48°22' W 122°32'2 1.6
2016-Apr-26 01:31N 48°23' W 122°30'1 0.0
2016-Apr-24 18:12N 48°24' W 122°30'0 0.0
2016-Apr-24 14:24N 48°24' W 122°30'0 0.0
2016-Apr-23 12:28N 48°24' W 122°30'0 0.0
2016-Apr-23 11:28N 48°24' W 122°30'0 0.0
2016-Apr-23 10:27N 48°24' W 122°30'0 0.0
2016-Apr-23 09:28N 48°24' W 122°30'0 0.0
2016-Apr-22 13:24N 48°24' W 122°30'0 0.0
2016-Apr-22 12:33N 48°24' W 122°30'0 0.0
2016-Apr-22 11:33N 48°24' W 122°30'0 0.0
2016-Apr-22 10:33N 48°24' W 122°30'19 7.9
2016-Apr-22 08:09N 48°05' W 122°26'711.0
2016-Apr-22 07:33N 47°60' W 122°20'1010.4
2016-Apr-22 06:34N 47°50' W 122°24'1111.2
2016-Apr-22 05:33N 47°39' W 122°29'1211.5
2016-Apr-22 04:33N 47°28' W 122°31'1212.2
2016-Apr-22 03:33N 47°16' W 122°33'11 1.1
2016-Apr-21 17:19N 47°10' W 122°48'6 0.8
2016-Apr-21 10:22N 47°11' W 122°40'2 2.4
2016-Apr-21 09:29N 47°12' W 122°37'3 3.4
2016-Apr-21 08:34N 47°15' W 122°34'3 3.2
2016-Apr-21 07:33N 47°18' W 122°33'1 1.3
2016-Apr-21 06:33N 47°19' W 122°32'2 1.7
2016-Apr-21 05:33N 47°18' W 122°30'2 1.5
2016-Apr-21 04:34N 47°17' W 122°28'1 0.8
2016-Apr-21 03:33N 47°17' W 122°27'1 0.7
2016-Apr-21 02:34N 47°17' W 122°28'1 0.7
2016-Apr-21 01:33N 47°18' W 122°28'1 0.7
2016-Apr-21 00:34N 47°18' W 122°29'1 1.2
2016-Apr-20 23:34N 47°17' W 122°28'0 0.4
2016-Apr-20 22:33N 47°17' W 122°29'  

Dump ship's entire track history